Station Historical Data
Daily Summary for June 15, 2017 Units:  English    Metric   Both
« Previous Day
Next Day »
Daily Weekly Monthly Yearly Custom
  High: Low: Average:
Temperature: 88.9 °F 67.9 °F 74.7 °F
Dew Point: 74.7 °F 64.3 °F 68.4 °F
Humidity: 94% 57% 82%
Wind Speed: 2.0mph 0.0mph 0.1mph
Wind Gust: 7.0mph - -
Wind- - SW
Pressure: 30.03 in 29.88 in -
Precipitation: 0.00 in    
Historical Graphs
 
 
Tabular Data for June 15, 2017
Time Temperature Dew Point Pressure Wind Wind Speed Wind Gust Humidity Rainfall Rate (Hourly) Conditions
00:00 68.4 °F 66.3 °F 30.02 in Calm     93% 0.00 in RA
00:10 68.4 °F 66.3 °F 30.03 in Calm     93% 0.00 in CLR
00:20 68.5 °F 66.4 °F 30.03 in Calm     93% 0.00 in CLR
00:30 68.6 °F 66.5 °F 30.03 in Calm     93% 0.00 in CLR
00:40 68.8 °F 66.7 °F 30.03 in Calm     93% 0.00 in CLR
00:50 68.9 °F 66.8 °F 30.03 in Calm     93% 0.00 in CLR
01:00 68.9 °F 66.8 °F 30.03 in Calm     93% 0.00 in CLR
01:10 68.9 °F 66.8 °F 30.02 in Calm     93% 0.00 in CLR
01:20 68.8 °F 66.7 °F 30.02 in Calm     93% 0.00 in CLR
01:30 68.6 °F 66.5 °F 30.02 in Calm     93% 0.00 in CLR
01:40 68.4 °F 66.3 °F 30.02 in Calm     93% 0.00 in CLR
01:50 68.5 °F 66.4 °F 30.01 in Calm     93% 0.00 in CLR
02:00 68.0 °F 65.6 °F 30.01 in Calm     92% 0.00 in CLR
02:10 68.0 °F 65.6 °F 30.02 in Calm     92% 0.00 in CLR
02:20 68.0 °F 65.6 °F 30.01 in Calm     92% 0.00 in CLR
02:30 68.0 °F 65.6 °F 30.01 in Calm     92% 0.00 in CLR
02:40 68.0 °F 65.6 °F 30.01 in Calm     92% 0.00 in CLR
03:00 68.0 °F 65.6 °F 30.00 in Calm     92% 0.00 in CLR
03:10 68.0 °F 65.6 °F 29.99 in Calm     92% 0.00 in CLR
03:20 68.0 °F 65.6 °F 29.99 in Calm     92% 0.00 in CLR
03:40 68.0 °F 65.6 °F 29.98 in Calm     92% 0.00 in CLR
03:50 68.0 °F 65.6 °F 29.97 in Calm     92% 0.00 in CLR
04:00 68.0 °F 65.6 °F 29.98 in Calm     92% 0.00 in CLR
04:10 68.0 °F 65.6 °F 29.98 in Calm     92% 0.00 in CLR
04:20 68.0 °F 65.6 °F 29.98 in Calm     92% 0.00 in CLR
04:30 68.0 °F 65.6 °F 29.98 in Calm     92% 0.00 in CLR
04:40 68.0 °F 65.6 °F 29.98 in Calm     92% 0.00 in CLR
04:50 68.0 °F 65.6 °F 29.98 in Calm     92% 0.00 in CLR
05:00 68.0 °F 65.6 °F 29.99 in Calm     92% 0.00 in CLR
05:10 68.0 °F 65.6 °F 29.99 in Calm     92% 0.00 in CLR
05:20 68.0 °F 65.6 °F 29.99 in Calm     92% 0.00 in CLR
05:30 68.0 °F 65.6 °F 29.99 in Calm     92% 0.00 in CLR
05:40 68.0 °F 65.6 °F 29.99 in Calm     92% 0.00 in CLR
05:50 68.0 °F 65.6 °F 29.99 in Calm     92% 0.00 in CLR
06:00 68.0 °F 65.6 °F 29.99 in Calm     92% 0.00 in CLR
06:10 68.0 °F 65.6 °F 30.00 in Calm     92% 0.00 in CLR
06:20 68.0 °F 65.6 °F 30.00 in Calm     92% 0.00 in CLR
06:30 68.0 °F 65.6 °F 30.00 in Calm     92% 0.00 in CLR
06:40 68.0 °F 65.6 °F 30.00 in Calm     92% 0.00 in CLR
06:50 68.0 °F 65.6 °F 30.00 in Calm     92% 0.00 in CLR
07:00 68.0 °F 65.6 °F 30.00 in Calm     92% 0.00 in CLR
07:10 68.0 °F 65.6 °F 30.00 in Calm     92% 0.00 in CLR
07:20 68.0 °F 65.6 °F 30.01 in Calm     92% 0.00 in CLR
07:30 68.0 °F 65.6 °F 30.01 in Calm     92% 0.00 in CLR
07:40 68.0 °F 65.6 °F 30.00 in Calm     92% 0.00 in CLR
07:50 69.9 °F 68.1 °F 30.01 in Calm     94% 0.00 in CLR
08:00 70.5 °F 68.7 °F 30.01 in Calm     94% 0.00 in CLR
08:10 71.0 °F 69.2 °F 30.01 in Calm   1.0 mph 94% 0.00 in CLR
08:20 71.4 °F 69.6 °F 30.01 in Calm     94% 0.00 in CLR
08:30 71.8 °F 70.0 °F 30.02 in Calm     94% 0.00 in CLR
08:40 71.6 °F 69.8 °F 30.02 in Calm     94% 0.00 in CLR
08:50 72.0 °F 70.2 °F 30.01 in Calm   2.0 mph 94% 0.00 in CLR
09:00 72.3 °F 70.5 °F 30.02 in Calm   1.0 mph 94% 0.00 in CLR
09:10 72.5 °F 70.7 °F 30.01 in Calm   1.0 mph 94% 0.00 in CLR
09:20 72.8 °F 71.0 °F 30.01 in Calm   2.0 mph 94% 0.00 in CLR
09:30 73.2 °F 71.4 °F 30.01 in Calm   2.0 mph 94% 0.00 in CLR
09:40 73.9 °F 71.7 °F 30.02 in Calm   2.0 mph 93% 0.00 in CLR
09:50 74.5 °F 72.0 °F 30.02 in Calm   2.0 mph 92% 0.00 in CLR
10:00 75.3 °F 72.4 °F 30.02 in Calm   1.0 mph 91% 0.00 in CLR
10:10 76.5 °F 73.4 °F 30.02 in Calm   1.0 mph 90% 0.00 in CLR
10:20 78.1 °F 73.9 °F 30.02 in Calm   1.0 mph 87% 0.00 in CLR
10:30 79.6 °F 74.7 °F 30.02 in Calm   1.0 mph 85% 0.00 in CLR
10:40 80.2 °F 74.2 °F 30.02 in NW 1.0 mph 2.0 mph 82% 0.00 in CLR
10:50 80.2 °F 73.4 °F 30.02 in SW 1.0 mph 2.0 mph 80% 0.00 in CLR
11:00 80.4 °F 72.9 °F 30.02 in SSW 1.0 mph 2.0 mph 78% 0.00 in CLR
11:10 80.8 °F 73.3 °F 30.01 in Calm   2.0 mph 78% 0.00 in CLR
11:20 81.0 °F 73.5 °F 30.01 in Calm   2.0 mph 78% 0.00 in CLR
11:30 81.6 °F 73.7 °F 30.01 in Calm   3.0 mph 77% 0.00 in CLR
11:40 81.8 °F 73.1 °F 30.00 in SSE 1.0 mph 3.0 mph 75% 0.00 in CLR
11:50 82.2 °F 73.1 °F 30.00 in Calm   2.0 mph 74% 0.00 in CLR
12:00 82.8 °F 73.3 °F 30.00 in Calm     73% 0.00 in CLR
12:10 82.2 °F 73.1 °F 29.99 in Calm     74% 0.00 in CLR
12:20 81.7 °F 72.2 °F 29.99 in Calm     73% 0.00 in CLR
12:30 82.6 °F 72.2 °F 29.99 in Calm     71% 0.00 in CLR
12:40 83.4 °F 70.9 °F 29.99 in Calm   5.0 mph 66% 0.00 in CLR
12:50 84.7 °F 72.0 °F 29.98 in Calm   2.0 mph 66% 0.00 in CLR
13:00 85.4 °F 71.8 °F 29.98 in Calm   2.0 mph 64% 0.00 in CLR
13:10 86.2 °F 71.7 °F 29.97 in Calm   1.0 mph 62% 0.00 in CLR
13:20 86.9 °F 72.8 °F 29.97 in Calm   1.0 mph 63% 0.00 in CLR
13:30 87.6 °F 72.5 °F 29.96 in Calm   1.0 mph 61% 0.00 in CLR
13:40 87.8 °F 73.6 °F 29.96 in Calm   2.0 mph 63% 0.00 in CLR
13:50 88.1 °F 73.4 °F 29.95 in North 2.0 mph 5.0 mph 62% 0.00 in CLR
14:00 87.9 °F 72.3 °F 29.95 in Calm   3.0 mph 60% 0.00 in CLR
14:10 86.7 °F 70.7 °F 29.95 in Calm   3.0 mph 59% 0.00 in CLR
14:20 86.9 °F 70.4 °F 29.94 in Calm   1.0 mph 58% 0.00 in CLR
14:30 87.0 °F 70.9 °F 29.94 in Calm   1.0 mph 59% 0.00 in CLR
14:40 86.8 °F 71.3 °F 29.93 in Calm   2.0 mph 60% 0.00 in CLR
14:50 86.8 °F 72.7 °F 29.93 in Calm   1.0 mph 63% 0.00 in CLR
15:00 86.3 °F 72.7 °F 29.93 in Calm   1.0 mph 64% 0.00 in CLR
15:10 86.0 °F 71.9 °F 29.93 in Calm   1.0 mph 63% 0.00 in CLR
15:30 84.9 °F 73.6 °F 29.93 in SW 1.0 mph 1.0 mph 69% 0.00 in CLR
15:40 84.8 °F 72.2 °F 29.92 in Calm   1.0 mph 66% 0.00 in CLR
15:50 84.7 °F 73.0 °F 29.92 in Calm     68% 0.00 in CLR
16:00 85.1 °F 71.5 °F 29.91 in Calm   1.0 mph 64% 0.00 in CLR
16:10 85.9 °F 71.8 °F 29.90 in Calm   2.0 mph 63% 0.00 in CLR
16:20 85.4 °F 72.8 °F 29.89 in Calm     66% 0.00 in CLR
16:30 85.7 °F 72.1 °F 29.89 in Calm   1.0 mph 64% 0.00 in CLR
16:40 85.5 °F 72.8 °F 29.89 in Calm   1.0 mph 66% 0.00 in CLR
16:50 86.5 °F 72.9 °F 29.89 in Calm   2.0 mph 64% 0.00 in CLR
17:00 87.7 °F 70.5 °F 29.88 in North 1.0 mph 2.0 mph 57% 0.00 in CLR
17:10 88.3 °F 71.7 °F 29.89 in Calm   2.0 mph 58% 0.00 in CLR
17:20 88.8 °F 73.2 °F 29.89 in Calm   1.0 mph 60% 0.00 in CLR
17:30 88.9 °F 71.7 °F 29.89 in Calm   1.0 mph 57% 0.00 in CLR
17:40 87.5 °F 72.3 °F 29.89 in Calm   1.0 mph 61% 0.00 in CLR
17:50 84.8 °F 68.3 °F 29.91 in WNW 2.0 mph 6.0 mph 58% 0.00 in CLR
18:00 79.1 °F 65.9 °F 29.91 in NW 1.0 mph 7.0 mph 64% 0.00 in CLR
18:10 75.9 °F 65.8 °F 29.92 in SW 2.0 mph 6.0 mph 71% 0.00 in CLR
18:20 73.9 °F 65.8 °F 29.91 in Calm   5.0 mph 76% 0.00 in CLR
18:30 73.2 °F 66.3 °F 29.92 in Calm   3.0 mph 79% 0.00 in CLR
18:40 72.9 °F 66.4 °F 29.90 in Calm   5.0 mph 80% 0.00 in CLR
18:50 72.8 °F 66.3 °F 29.91 in Calm   1.0 mph 80% 0.00 in CLR
19:00 73.0 °F 66.5 °F 29.92 in Calm     80% 0.00 in CLR
19:10 73.1 °F 66.2 °F 29.91 in Calm     79% 0.00 in CLR
19:20 73.0 °F 66.1 °F 29.91 in Calm     79% 0.00 in CLR
19:30 73.0 °F 66.1 °F 29.92 in Calm     79% 0.00 in CLR
19:40 73.0 °F 66.5 °F 29.90 in Calm     80% 0.00 in CLR
19:50 72.9 °F 66.0 °F 29.90 in Calm     79% 0.00 in CLR
20:00 72.7 °F 65.9 °F 29.91 in Calm     79% 0.00 in CLR
20:10 72.6 °F 66.1 °F 29.92 in Calm     80% 0.00 in CLR
20:20 72.4 °F 65.9 °F 29.91 in Calm   1.0 mph 80% 0.00 in CLR
20:30 72.1 °F 65.9 °F 29.92 in Calm     81% 0.00 in CLR
20:40 71.7 °F 66.3 °F 29.93 in Calm   1.0 mph 83% 0.00 in CLR
20:50 71.3 °F 65.9 °F 29.94 in Calm     83% 0.00 in CLR
21:00 71.0 °F 65.9 °F 29.94 in Calm     84% 0.00 in CLR
21:10 70.6 °F 65.5 °F 29.94 in Calm     84% 0.00 in CLR
21:20 70.4 °F 65.7 °F 29.94 in Calm     85% 0.00 in CLR
21:30 70.1 °F 65.4 °F 29.94 in Calm     85% 0.00 in CLR
21:40 70.0 °F 65.3 °F 29.94 in Calm     85% 0.00 in CLR
21:50 69.9 °F 65.2 °F 29.94 in Calm     85% 0.00 in CLR
22:00 69.9 °F 65.2 °F 29.95 in Calm     85% 0.00 in CLR
22:10 69.8 °F 65.1 °F 29.95 in Calm     85% 0.00 in CLR
22:20 69.6 °F 64.9 °F 29.95 in Calm     85% 0.00 in CLR
22:30 69.5 °F 65.1 °F 29.94 in Calm     86% 0.00 in CLR
22:40 69.2 °F 64.9 °F 29.93 in Calm     86% 0.00 in CLR
22:50 68.9 °F 64.9 °F 29.93 in Calm     87% 0.00 in CLR
23:00 68.7 °F 64.3 °F 29.92 in Calm     86% 0.00 in CLR
23:10 68.5 °F 64.5 °F 29.92 in Calm     87% 0.00 in CLR
23:20 68.3 °F 64.3 °F 29.92 in Calm     87% 0.00 in CLR
23:30 68.2 °F 64.5 °F 29.92 in Calm     88% 0.00 in CLR
23:40 68.1 °F 64.4 °F 29.92 in Calm     88% 0.00 in CLR
23:50 67.9 °F 64.5 °F 29.92 in Calm     89% 0.00 in CLR
Piedmont Bend
Compliments of Weather Underground - 4 mb